Time;durP1;ratioP1;P1;durP2;ratioP2;P2;SDS_P1;SDS_P2;PMS_P1;PMS_P2;Temp;Humidity;BMP_temperature;BMP_pressure;BME280_temperature;BME280_humidity;BME280_pressure;Samples;Min_cycle;Max_cycle;Signal;HPM_P1;HPM_P2
2021/06/02 00:02:08;;;;;;;6.47;4.93;;;15.10;60.50;;;;;;5046606;28;20081;-62
2021/06/02 00:04:41;;;;;;;9.23;4.60;;;15.00;60.60;;;;;;5053936;28;20082;-62
2021/06/02 00:07:09;;;;;;;8.38;5.00;;;15.00;60.50;;;;;;5046551;28;20434;-62
2021/06/02 00:09:37;;;;;;;7.25;4.70;;;14.30;61.60;;;;;;5057104;28;20090;-62
2021/06/02 00:12:05;;;;;;;7.43;4.85;;;14.90;61.10;;;;;;5050126;28;20089;-63
2021/06/02 00:14:31;;;;;;;7.13;4.57;;;14.90;60.70;;;;;;5048087;28;20505;-62
2021/06/02 00:16:58;;;;;;;7.30;4.80;;;14.70;63.30;;;;;;5053665;28;20040;-62
2021/06/02 00:19:24;;;;;;;8.27;4.78;;;14.90;62.70;;;;;;5051197;28;20040;-63
2021/06/02 00:21:51;;;;;;;7.72;4.75;;;14.00;61.60;;;;;;5058218;28;20614;-62
2021/06/02 00:24:18;;;;;;;6.80;4.82;;;14.70;62.10;;;;;;5049574;28;20096;-63
2021/06/02 00:26:44;;;;;;;9.38;4.93;;;14.70;62.50;;;;;;5050242;28;20355;-62
2021/06/02 00:29:12;;;;;;;7.45;4.88;;;14.60;62.50;;;;;;5059162;28;20110;-62
2021/06/02 00:31:43;;;;;;;7.45;4.80;;;14.60;62.20;;;;;;5050191;28;20584;-63
2021/06/02 00:34:09;;;;;;;7.53;4.97;;;14.50;62.80;;;;;;5054032;28;20551;-62
2021/06/02 00:36:42;;;;;;;6.95;4.63;;;14.50;63.10;;;;;;5059391;28;20262;-62
2021/06/02 00:39:10;;;;;;;7.47;4.63;;;14.40;63.20;;;;;;5059365;28;20085;-63
2021/06/02 00:41:38;;;;;;;6.82;4.72;;;14.60;65.10;;;;;;5066461;28;20155;-63
2021/06/02 00:44:08;;;;;;;6.93;4.57;;;14.40;63.50;;;;;;5051261;28;20543;-63
2021/06/02 00:46:38;;;;;;;7.93;5.07;;;14.30;63.70;;;;;;5063009;28;20101;-62
2021/06/02 00:49:24;;;;;;;;;;;14.30;64.30;;;;;;5058767;28;20093;-63
2021/06/02 00:52:02;;;;;;;7.13;4.95;;;15.50;65.60;;;;;;5056063;28;19981;-62
2021/06/02 00:54:31;;;;;;;7.60;5.03;;;14.10;64.70;;;;;;5048627;28;20096;-63
2021/06/02 00:57:12;;;;;;;6.72;5.20;;;14.10;66.10;;;;;;5051931;28;20112;-63
2021/06/02 01:00:09;;;;;;;8.43;5.35;;;14.10;65.10;;;;;;5051917;28;20092;-63
2021/06/02 01:02:36;;;;;;;9.27;5.60;;;14.10;65.50;;;;;;5053124;28;20093;-63
2021/06/02 01:05:03;;;;;;;8.02;5.03;;;14.10;65.40;;;;;;5053214;28;20176;-63
2021/06/02 01:07:31;;;;;;;8.25;5.35;;;14.00;65.20;;;;;;5057991;28;20142;-62
2021/06/02 01:09:59;;;;;;;11.55;6.50;;;14.00;65.70;;;;;;5057767;28;20092;-63
2021/06/02 01:12:29;;;;;;;10.68;5.43;;;14.00;66.00;;;;;;5062995;28;20165;-62
2021/06/02 01:14:57;;;;;;;9.43;5.65;;;14.00;65.80;;;;;;5057267;28;20219;-62
2021/06/02 01:17:25;;;;;;;9.88;5.40;;;14.00;66.50;;;;;;5051262;28;20105;-62
2021/06/02 01:19:54;;;;;;;9.48;5.40;;;13.70;65.30;;;;;;5049745;28;20163;-62
2021/06/02 01:22:20;;;;;;;;;;;13.90;65.60;;;;;;5053126;28;20092;-62
2021/06/02 01:24:46;;;;;;;9.00;5.57;;;13.90;66.70;;;;;;5043162;28;20764;-62
2021/06/02 01:27:14;;;;;;;8.52;6.03;;;13.70;68.60;;;;;;5058698;28;20172;-62
2021/06/02 01:29:46;;;;;;;10.40;5.80;;;13.50;67.70;;;;;;5049141;28;20239;-63
2021/06/02 01:32:56;;;;;;;10.52;6.35;;;13.70;68.20;;;;;;5052112;28;20090;-63
2021/06/02 01:35:31;;;;;;;;;;;13.70;68.30;;;;;;5049223;28;20089;-63
2021/06/02 01:38:19;;;;;;;12.25;6.53;;;13.40;69.30;;;;;;5053335;28;20370;-62
2021/06/02 01:41:07;;;;;;;8.02;5.70;;;13.50;68.30;;;;;;5047124;28;20104;-62
2021/06/02 01:43:52;;;;;;;7.47;5.43;;;13.40;68.50;;;;;;5050890;28;20086;-62
2021/06/02 01:46:36;;;;;;;8.30;6.10;;;13.60;68.10;;;;;;5050727;28;20085;-63
2021/06/02 01:49:27;;;;;;;10.27;6.20;;;13.50;70.60;;;;;;5051625;28;20612;-63
2021/06/02 01:51:55;;;;;;;10.32;6.57;;;12.50;69.70;;;;;;5051175;28;20089;-63
2021/06/02 01:55:05;;;;;;;8.82;6.32;;;13.00;71.10;;;;;;5064573;28;20186;-62
2021/06/02 01:57:30;;;;;;;10.27;6.22;;;13.30;70.50;;;;;;5060576;28;20105;-62
2021/06/02 02:00:09;;;;;;;8.82;5.70;;;12.20;70.70;;;;;;5051681;28;20090;-62
2021/06/02 02:03:01;;;;;;;10.90;6.68;;;13.20;70.00;;;;;;5054418;28;20096;-63
2021/06/02 02:05:54;;;;;;;10.85;6.25;;;11.60;70.20;;;;;;5052041;28;20164;-63
2021/06/02 02:08:45;;;;;;;8.95;6.38;;;13.20;71.00;;;;;;5059896;28;20097;-62
2021/06/02 02:11:35;;;;;;;10.43;5.75;;;13.10;70.90;;;;;;5050969;28;20089;-62
2021/06/02 02:14:37;;;;;;;10.07;6.30;;;13.10;71.60;;;;;;5048914;28;20151;-63
2021/06/02 02:17:38;;;;;;;8.80;5.85;;;13.00;73.50;;;;;;5050965;28;20105;-63
2021/06/02 02:20:05;;;;;;;8.25;6.05;;;;;;;;;;5058549;28;20100;-62
2021/06/02 02:23:14;;;;;;;9.27;5.80;;;12.60;72.70;;;;;;5043977;28;20101;-62
2021/06/02 02:26:01;;;;;;;10.10;6.15;;;13.80;72.80;;;;;;5036242;28;20132;-63
2021/06/02 02:28:53;;;;;;;10.85;6.28;;;14.30;72.60;;;;;;5055383;28;20199;-62
2021/06/02 02:31:46;;;;;;;10.07;5.75;;;12.90;72.10;;;;;;5049431;28;20085;-62
2021/06/02 02:34:30;;;;;;;10.00;6.30;;;13.00;72.30;;;;;;5050904;28;20656;-62
2021/06/02 02:37:07;;;;;;;11.88;5.97;;;13.00;72.00;;;;;;5046556;28;20505;-63
2021/06/02 02:39:55;;;;;;;11.02;6.88;;;12.90;73.70;;;;;;5044442;28;20097;-62
2021/06/02 02:42:26;;;;;;;10.75;6.38;;;12.90;73.40;;;;;;5046563;28;20164;-62
2021/06/02 02:45:04;;;;;;;10.43;6.60;;;13.00;73.00;;;;;;5055820;28;20192;-62
2021/06/02 02:47:34;;;;;;;10.32;6.68;;;12.70;73.20;;;;;;5046416;28;20168;-63
2021/06/02 02:50:03;;;;;;;11.05;6.32;;;12.90;72.20;;;;;;5049769;28;20100;-63
2021/06/02 02:52:41;;;;;;;10.73;6.28;;;12.80;72.70;;;;;;5048812;28;20085;-62
2021/06/02 02:55:09;;;;;;;8.95;5.82;;;13.20;73.00;;;;;;5049940;28;20093;-63
2021/06/02 02:57:43;;;;;;;9.32;6.93;;;14.20;72.80;;;;;;5044743;28;20184;-62
2021/06/02 03:00:17;;;;;;;11.85;7.10;;;12.90;72.00;;;;;;5056940;28;20093;-62
2021/06/02 03:02:59;;;;;;;10.63;6.68;;;12.90;72.40;;;;;;5041282;28;20200;-63
2021/06/02 03:05:28;;;;;;;11.07;7.07;;;13.00;73.20;;;;;;5047866;28;20143;-63
2021/06/02 03:08:16;;;;;;;9.10;6.50;;;13.00;72.80;;;;;;5044882;28;20433;-63
2021/06/02 03:11:16;;;;;;;12.73;6.67;;;13.00;73.20;;;;;;5048090;28;20137;-62
2021/06/02 03:13:50;;;;;;;9.40;6.78;;;13.40;72.60;;;;;;5036277;28;20170;-63
2021/06/02 03:16:24;;;;;;;13.60;6.93;;;14.10;73.00;;;;;;5046139;28;20180;-62
2021/06/02 03:19:07;;;;;;;11.13;7.00;;;13.10;73.00;;;;;;5050271;28;20180;-63
2021/06/02 03:21:40;;;;;;;15.07;7.25;;;12.80;74.10;;;;;;5036809;28;20085;-63
2021/06/02 03:24:15;;;;;;;10.07;6.68;;;13.90;74.70;;;;;;5044653;28;20505;-62
2021/06/02 03:26:54;;;;;;;11.65;6.97;;;13.20;74.20;;;;;;5047876;28;20089;-63
2021/06/02 03:29:51;;;;;;;12.90;8.00;;;12.60;74.10;;;;;;5055885;28;20120;-63
2021/06/02 03:32:48;;;;;;;12.77;7.75;;;13.20;74.20;;;;;;5043348;28;20572;-63
2021/06/02 03:35:44;;;;;;;11.52;7.45;;;14.50;74.50;;;;;;5058744;28;20094;-63
2021/06/02 03:38:12;;;;;;;12.27;7.15;;;13.40;74.20;;;;;;5054221;28;20115;-62
2021/06/02 03:40:50;;;;;;;12.10;7.68;;;13.50;73.80;;;;;;5047445;28;20173;-63
2021/06/02 03:43:16;;;;;;;11.90;7.28;;;13.40;73.20;;;;;;5048258;28;20164;-63
2021/06/02 03:45:59;;;;;;;11.07;7.35;;;13.50;73.50;;;;;;5046856;28;20085;-63
2021/06/02 03:48:32;;;;;;;15.43;7.95;;;13.50;73.60;;;;;;5053756;28;20406;-62
2021/06/02 03:51:01;;;;;;;12.02;7.45;;;13.60;73.60;;;;;;5054474;28;20090;-62
2021/06/02 03:53:47;;;;;;;11.45;7.43;;;13.70;73.10;;;;;;5047474;28;20097;-63
2021/06/02 03:56:41;;;;;;;12.48;7.63;;;13.70;72.90;;;;;;5048884;28;20089;-62
2021/06/02 03:59:34;;;;;;;11.88;7.72;;;15.10;73.20;;;;;;5055117;28;20607;-63
2021/06/02 04:02:08;;;;;;;12.82;7.88;;;13.80;73.30;;;;;;5052905;28;20089;-63
2021/06/02 04:04:49;;;;;;;10.73;7.30;;;13.40;73.70;;;;;;5054778;28;20495;-62
2021/06/02 04:07:27;;;;;;;12.43;7.88;;;13.90;73.20;;;;;;5050696;28;20097;-63
2021/06/02 04:10:03;;;;;;;12.25;7.32;;;13.90;72.80;;;;;;5056226;28;20089;-63
2021/06/02 04:12:47;;;;;;;12.90;7.75;;;14.00;72.70;;;;;;5049511;28;20257;-63
2021/06/02 04:15:15;;;;;;;11.95;7.50;;;13.60;72.60;;;;;;5053727;28;20143;-63
2021/06/02 04:17:49;;;;;;;13.88;7.47;;;13.60;72.10;;;;;;5052753;28;20105;-62
2021/06/02 04:20:18;;;;;;;12.45;7.88;;;14.00;72.00;;;;;;5056354;28;20203;-63
2021/06/02 04:22:47;;;;;;;11.20;6.87;;;14.10;72.10;;;;;;5053847;28;20523;-62
2021/06/02 04:25:18;;;;;;;14.18;8.15;;;14.00;72.60;;;;;;5049317;28;20128;-62
2021/06/02 04:27:48;;;;;;;11.27;7.97;;;14.10;71.80;;;;;;5056491;28;20093;-63
2021/06/02 04:30:18;;;;;;;14.30;8.15;;;13.00;72.00;;;;;;5065082;28;20173;-62
2021/06/02 04:32:47;;;;;;;18.33;8.10;;;14.20;72.00;;;;;;5054918;28;20097;-63
2021/06/02 04:35:16;;;;;;;11.82;8.10;;;13.90;72.20;;;;;;5053583;28;20116;-63
2021/06/02 04:37:44;;;;;;;12.15;7.38;;;14.10;72.50;;;;;;5054715;28;20097;-62
2021/06/02 04:40:11;;;;;;;13.57;7.95;;;14.20;72.60;;;;;;5051206;28;20184;-63
2021/06/02 04:42:40;;;;;;;12.57;7.50;;;14.20;72.80;;;;;;5052822;28;20093;-63
2021/06/02 04:45:08;;;;;;;12.75;7.80;;;14.40;72.60;;;;;;5051766;28;20085;-62
2021/06/02 04:47:35;;;;;;;12.15;7.40;;;13.80;72.10;;;;;;5050733;28;20089;-62
2021/06/02 04:50:04;;;;;;;13.50;8.07;;;14.20;72.30;;;;;;5053666;28;20085;-64
2021/06/02 04:52:33;;;;;;;14.45;7.47;;;14.20;73.10;;;;;;5055609;28;20096;-64
2021/06/02 04:55:13;;;;;;;11.88;7.13;;;14.20;72.50;;;;;;5050203;28;20168;-63
2021/06/02 04:58:04;;;;;;;10.50;7.40;;;12.80;71.50;;;;;;5047752;28;20108;-61
2021/06/02 05:00:54;;;;;;;11.68;6.95;;;14.40;72.40;;;;;;5054778;28;20163;-62
2021/06/02 05:04:09;;;;;;;11.43;7.18;;;14.30;72.50;;;;;;5046766;28;20421;-63
2021/06/02 05:06:57;;;;;;;10.40;6.57;;;15.10;71.90;;;;;;5042779;28;20157;-62
2021/06/02 05:09:44;;;;;;;12.15;6.82;;;14.40;71.60;;;;;;5049966;28;20538;-62
2021/06/02 05:12:38;;;;;;;11.75;7.32;;;14.60;71.10;;;;;;5053401;28;20112;-64
2021/06/02 05:15:47;;;;;;;13.15;7.38;;;14.60;70.50;;;;;;5050643;28;20176;-62
2021/06/02 05:18:42;;;;;;;10.20;6.78;;;14.70;70.70;;;;;;5041951;28;20101;-63
2021/06/02 05:24:37;;;;;;;12.20;7.18;;;15.00;69.30;;;;;;5053781;28;20572;-63
2021/06/02 05:27:17;;;;;;;10.50;6.60;;;15.10;68.20;;;;;;5047716;28;20461;-63
2021/06/02 05:30:06;;;;;;;10.77;6.60;;;15.10;68.60;;;;;;5049668;28;20121;-63
2021/06/02 05:32:32;;;;;;;11.60;6.95;;;14.90;68.20;;;;;;5045359;28;20089;-63
2021/06/02 05:35:35;;;;;;;12.40;7.00;;;15.40;68.10;;;;;;5047724;28;20162;-63
2021/06/02 05:38:38;;;;;;;10.38;6.88;;;15.40;67.90;;;;;;5043765;28;20115;-64
2021/06/02 05:41:10;;;;;;;13.02;6.97;;;15.50;67.10;;;;;;5049438;28;20104;-60
2021/06/02 05:44:06;;;;;;;10.23;7.35;;;15.50;66.80;;;;;;5040698;28;20159;-63
2021/06/02 05:47:06;;;;;;;12.73;7.18;;;15.80;66.70;;;;;;5044198;28;20093;-62
2021/06/02 05:50:10;;;;;;;10.63;6.30;;;15.50;66.70;;;;;;5041974;28;20096;-62
2021/06/02 05:53:13;;;;;;;10.40;6.78;;;15.40;66.90;;;;;;5046503;28;20092;-62
2021/06/02 05:55:51;;;;;;;10.73;6.55;;;15.50;67.20;;;;;;5045587;28;20170;-63
2021/06/02 05:58:33;;;;;;;12.25;7.28;;;15.50;67.70;;;;;;5053745;28;20101;-62
2021/06/02 06:01:25;;;;;;;11.13;7.10;;;15.50;67.60;;;;;;5045289;28;20089;-63
2021/06/02 06:04:16;;;;;;;11.15;7.15;;;15.50;68.10;;;;;;5030037;28;20101;-63
2021/06/02 06:07:27;;;;;;;11.60;7.45;;;15.60;67.90;;;;;;5048337;28;20095;-63
2021/06/02 06:10:15;;;;;;;11.80;7.82;;;15.00;66.40;;;;;;5037781;28;20108;-63
2021/06/02 06:12:59;;;;;;;12.90;7.50;;;15.90;67.30;;;;;;5048586;28;20101;-63
2021/06/02 06:15:52;;;;;;;11.68;7.38;;;16.00;67.20;;;;;;5052453;28;20191;-63
2021/06/02 06:18:39;;;;;;;10.15;7.13;;;16.30;64.80;;;;;;5042343;28;20180;-63
2021/06/02 06:21:29;;;;;;;11.30;7.22;;;16.40;65.30;;;;;;5049585;28;20133;-63
2021/06/02 06:24:10;;;;;;;13.32;8.45;;;16.60;64.80;;;;;;5040517;28;20505;-63
2021/06/02 06:26:53;;;;;;;11.93;7.45;;;16.80;64.80;;;;;;5046188;28;20192;-63
2021/06/02 06:30:02;;;;;;;12.15;7.05;;;17.00;64.10;;;;;;5056761;28;20121;-63
2021/06/02 06:32:30;;;;;;;11.15;6.88;;;17.20;62.40;;;;;;5045930;28;20641;-63
2021/06/02 06:35:00;;;;;;;14.30;7.35;;;17.30;63.10;;;;;;5052013;28;20113;-63
2021/06/02 06:37:31;;;;;;;;;;;17.40;62.60;;;;;;5046236;28;20623;-63
2021/06/02 06:40:02;;;;;;;11.23;7.57;;;17.50;62.30;;;;;;5049951;28;19985;-62
2021/06/02 06:42:33;;;;;;;12.95;7.40;;;16.90;61.40;;;;;;5049994;28;20085;-62
2021/06/02 06:45:16;;;;;;;14.30;7.32;;;17.60;62.50;;;;;;5045326;28;20113;-62
2021/06/02 06:47:43;;;;;;;11.00;7.70;;;17.70;63.30;;;;;;5042877;28;20089;-63
2021/06/02 06:50:11;;;;;;;9.70;6.95;;;18.50;62.80;;;;;;5046581;28;20086;-62
2021/06/02 06:52:39;;;;;;;12.93;7.57;;;17.90;61.10;;;;;;5052300;28;20090;-62
2021/06/02 06:55:07;;;;;;;10.07;7.22;;;19.20;61.80;;;;;;5055497;28;20480;-62
2021/06/02 06:57:34;;;;;;;12.23;7.70;;;18.00;61.60;;;;;;5037881;28;20097;-62
2021/06/02 07:00:01;;;;;;;10.85;7.50;;;18.10;61.40;;;;;;5048930;28;20458;-62
2021/06/02 07:02:28;;;;;;;10.25;6.97;;;18.70;61.00;;;;;;5078200;28;20177;-62
2021/06/02 07:04:57;;;;;;;11.45;6.88;;;18.50;60.50;;;;;;5049535;28;20097;-62
2021/06/02 07:07:26;;;;;;;11.98;7.22;;;18.50;61.40;;;;;;5045892;28;20111;-62
2021/06/02 07:09:52;;;;;;;10.63;7.10;;;18.60;60.20;;;;;;5045062;28;20109;-62
2021/06/02 07:12:21;;;;;;;10.07;7.15;;;18.70;59.30;;;;;;5047603;28;20526;-63
2021/06/02 07:14:49;;;;;;;10.43;6.95;;;18.80;58.60;;;;;;5039502;28;20101;-63
2021/06/02 07:17:16;;;;;;;11.55;6.95;;;19.00;58.20;;;;;;5056619;28;20113;-62
2021/06/02 07:19:48;;;;;;;9.63;7.07;;;19.10;57.80;;;;;;5048774;28;20089;-63
2021/06/02 07:22:20;;;;;;;13.10;7.25;;;19.20;57.20;;;;;;5048091;28;20449;-63
2021/06/02 07:24:46;;;;;;;10.95;7.55;;;19.40;56.90;;;;;;5048911;28;20048;-63
2021/06/02 07:27:14;;;;;;;11.80;6.85;;;19.80;57.50;;;;;;5048360;28;20461;-63
2021/06/02 07:29:44;;;;;;;11.50;7.40;;;21.30;53.40;;;;;;5051198;28;20203;-63
2021/06/02 07:32:09;;;;;;;12.75;7.43;;;21.30;55.00;;;;;;5046888;28;20180;-63
2021/06/02 07:34:35;;;;;;;13.00;6.97;;;22.20;52.80;;;;;;5050983;28;20507;-63
2021/06/02 07:37:16;;;;;;;9.90;6.50;;;23.70;44.90;;;;;;5046497;28;20213;-63
2021/06/02 07:39:42;;;;;;;10.63;6.32;;;23.70;48.30;;;;;;5050844;28;20081;-65
2021/06/02 07:42:08;;;;;;;8.23;6.53;;;24.40;45.70;;;;;;5045491;28;20088;-63
2021/06/02 07:44:34;;;;;;;12.93;6.43;;;24.60;43.10;;;;;;5051066;28;20090;-62
2021/06/02 07:47:00;;;;;;;6.97;5.75;;;24.90;43.30;;;;;;5047463;28;20180;-63
2021/06/02 07:49:26;;;;;;;9.02;6.43;;;25.20;42.90;;;;;;5053166;28;20176;-62
2021/06/02 07:51:52;;;;;;;7.22;5.13;;;25.50;41.80;;;;;;5046391;28;20151;-63
2021/06/02 07:54:19;;;;;;;8.88;5.60;;;25.90;40.40;;;;;;5053660;28;20501;-64
2021/06/02 07:56:46;;;;;;;8.70;5.97;;;26.70;37.40;;;;;;5052050;28;20105;-63
2021/06/02 07:59:12;;;;;;;7.55;5.03;;;26.70;39.60;;;;;;5047755;28;20125;-63
2021/06/02 08:01:38;;;;;;;7.43;5.07;;;27.20;39.00;;;;;;5036950;28;20603;-63
2021/06/02 08:04:04;;;;;;;8.48;5.25;;;27.50;37.30;;;;;;5047898;28;20081;-63
2021/06/02 08:06:30;;;;;;;7.18;5.78;;;27.50;36.60;;;;;;5048231;28;20097;-62
2021/06/02 08:08:56;;;;;;;7.43;5.30;;;27.40;34.90;;;;;;5044723;28;20093;-62
2021/06/02 08:11:22;;;;;;;7.20;5.22;;;27.00;36.20;;;;;;5050270;28;20103;-63
2021/06/02 08:13:48;;;;;;;9.95;5.10;;;26.90;36.70;;;;;;5044556;28;20086;-62
2021/06/02 08:16:14;;;;;;;8.75;5.63;;;26.70;36.70;;;;;;5043976;28;20132;-61
2021/06/02 08:18:40;;;;;;;6.75;5.25;;;26.50;37.10;;;;;;5050162;28;20121;-61
2021/06/02 08:21:06;;;;;;;7.90;5.03;;;26.50;37.00;;;;;;5046862;28;20578;-62
2021/06/02 08:23:32;;;;;;;7.25;5.28;;;26.50;37.50;;;;;;5047268;28;20473;-62
2021/06/02 08:25:58;;;;;;;8.23;4.95;;;26.60;38.00;;;;;;5050384;28;20127;-62
2021/06/02 08:28:25;;;;;;;6.32;4.90;;;26.70;37.50;;;;;;5062259;28;20578;-62
2021/06/02 08:30:51;;;;;;;5.95;4.70;;;26.80;36.70;;;;;;5049906;28;20125;-63
2021/06/02 08:33:17;;;;;;;7.47;4.72;;;26.90;37.50;;;;;;5054204;28;20139;-62
2021/06/02 08:35:44;;;;;;;8.63;4.55;;;26.90;36.80;;;;;;5047825;28;20107;-63
2021/06/02 08:38:10;;;;;;;9.82;4.80;;;27.20;37.40;;;;;;5057310;28;20100;-62
2021/06/02 08:40:36;;;;;;;9.93;4.90;;;27.50;36.30;;;;;;5051094;28;20604;-63
2021/06/02 08:43:02;;;;;;;7.90;4.43;;;27.70;35.60;;;;;;5050868;28;20089;-62
2021/06/02 08:45:28;;;;;;;8.15;5.38;;;27.90;35.70;;;;;;5046355;28;20085;-63
2021/06/02 08:47:55;;;;;;;6.13;4.55;;;28.00;34.70;;;;;;5029457;28;20109;-63
2021/06/02 08:50:21;;;;;;;7.93;4.43;;;28.30;34.50;;;;;;5047512;28;20100;-63
2021/06/02 08:52:48;;;;;;;5.50;3.63;;;28.50;34.50;;;;;;5050895;28;20098;-63
2021/06/02 08:55:17;;;;;;;6.63;4.35;;;28.50;32.30;;;;;;5057371;28;20562;-61
2021/06/02 08:57:45;;;;;;;7.90;4.85;;;28.40;31.60;;;;;;5039528;28;20101;-62
2021/06/02 09:00:13;;;;;;;7.32;4.03;;;28.20;32.70;;;;;;5051841;28;20096;-62
2021/06/02 09:02:41;;;;;;;8.77;4.78;;;28.30;32.40;;;;;;5047462;28;20033;-62
2021/06/02 09:05:08;;;;;;;6.67;4.60;;;28.40;31.60;;;;;;5049646;28;20167;-62
2021/06/02 09:07:39;;;;;;;5.43;4.63;;;28.20;32.20;;;;;;5062669;28;20097;-62
2021/06/02 09:10:07;;;;;;;6.05;4.50;;;28.10;32.90;;;;;;5051612;28;20097;-62
2021/06/02 09:12:35;;;;;;;8.45;4.68;;;28.20;33.80;;;;;;5058107;28;20086;-62
2021/06/02 09:15:21;;;;;;;6.50;4.70;;;28.30;34.10;;;;;;5056970;28;20085;-62
2021/06/02 09:17:53;;;;;;;7.40;4.97;;;28.50;33.20;;;;;;5057926;28;20129;-62
2021/06/02 09:20:32;;;;;;;6.47;4.20;;;28.60;34.20;;;;;;5051005;28;20104;-62
2021/06/02 09:23:00;;;;;;;5.75;3.78;;;28.70;31.30;;;;;;5050213;28;20513;-62
2021/06/02 09:25:26;;;;;;;6.53;4.38;;;28.60;31.70;;;;;;5052102;28;20147;-62
2021/06/02 09:27:57;;;;;;;9.93;4.45;;;28.60;31.90;;;;;;5050656;28;20102;-62
2021/06/02 09:30:39;;;;;;;7.13;4.38;;;28.50;31.90;;;;;;5051258;28;20200;-62
2021/06/02 09:33:05;;;;;;;5.93;3.97;;;28.20;31.50;;;;;;5054818;28;20113;-62
2021/06/02 09:35:35;;;;;;;5.35;4.05;;;28.00;31.90;;;;;;5056748;28;20085;-62
2021/06/02 09:38:01;;;;;;;5.45;4.07;;;27.90;31.50;;;;;;5050352;28;20167;-62
2021/06/02 09:40:34;;;;;;;18.30;4.75;;;27.70;31.70;;;;;;5051055;28;20049;-61
2021/06/02 09:43:00;;;;;;;8.48;4.38;;;27.50;31.00;;;;;;5051566;28;20162;-62
2021/06/02 09:45:27;;;;;;;5.60;3.80;;;26.90;32.90;;;;;;5055571;28;20089;-62
2021/06/02 09:48:00;;;;;;;4.72;3.80;;;26.80;32.30;;;;;;5049468;28;20150;-64
2021/06/02 09:50:40;;;;;;;7.50;4.13;;;26.90;33.40;;;;;;5048324;28;20093;-63
2021/06/02 09:53:10;;;;;;;4.95;3.42;;;27.00;32.80;;;;;;5047731;28;20099;-63
2021/06/02 09:55:39;;;;;;;5.72;3.90;;;26.80;33.10;;;;;;5050152;28;20098;-63
2021/06/02 09:58:09;;;;;;;4.72;3.90;;;26.60;33.50;;;;;;5049184;28;20215;-63
2021/06/02 10:00:43;;;;;;;5.43;4.05;;;26.40;33.30;;;;;;5049277;28;20089;-63
2021/06/02 10:03:18;;;;;;;6.57;3.90;;;26.20;33.40;;;;;;4350287;28;10001006;-62
2021/06/02 10:05:46;;;;;;;5.28;3.78;;;25.90;34.20;;;;;;5045118;28;20420;-64
2021/06/02 10:08:23;;;;;;;;;;;25.90;34.40;;;;;;5065292;28;20494;-62
2021/06/02 10:10:51;;;;;;;6.00;3.80;;;25.80;33.70;;;;;;5049688;28;20038;-63
2021/06/02 10:13:17;;;;;;;5.87;4.10;;;25.90;34.60;;;;;;5046897;28;20142;-64
2021/06/02 10:15:48;;;;;;;8.25;3.53;;;26.00;34.40;;;;;;5045639;28;20089;-62
2021/06/02 10:18:30;;;;;;;7.35;3.92;;;26.10;33.90;;;;;;5049643;28;20132;-63
2021/06/02 10:21:02;;;;;;;6.80;3.85;;;26.20;33.80;;;;;;5049994;28;20465;-62
2021/06/02 10:23:31;;;;;;;6.95;4.03;;;26.40;34.20;;;;;;5044076;28;20097;-63
2021/06/02 10:25:57;;;;;;;9.23;4.07;;;26.40;33.80;;;;;;5058030;28;20115;-62
2021/06/02 10:28:25;;;;;;;5.40;3.80;;;26.70;34.30;;;;;;5050038;28;20465;-63
2021/06/02 10:30:52;;;;;;;8.07;3.90;;;26.90;34.20;;;;;;5048769;28;20093;-62
2021/06/02 10:33:18;;;;;;;5.38;3.55;;;26.90;34.10;;;;;;5051278;28;20150;-62
2021/06/02 10:35:44;;;;;;;5.55;3.92;;;26.90;34.80;;;;;;5048479;28;20101;-62
2021/06/02 10:38:12;;;;;;;8.23;4.00;;;26.90;32.20;;;;;;5065270;28;20104;-62
2021/06/02 10:40:40;;;;;;;5.07;3.53;;;26.90;33.40;;;;;;5049384;28;20139;-62
2021/06/02 10:43:32;;;;;;;7.53;4.47;;;26.80;33.70;;;;;;5048821;28;20581;-62
2021/06/02 10:46:08;;;;;;;8.70;3.88;;;26.70;33.30;;;;;;5047385;28;20158;-63
2021/06/02 10:48:54;;;;;;;7.45;3.80;;;26.70;34.00;;;;;;5044812;28;20093;-63
2021/06/02 10:51:35;;;;;;;6.93;3.60;;;26.50;34.60;;;;;;5048266;28;20113;-62
2021/06/02 10:54:08;;;;;;;6.32;4.00;;;26.60;34.40;;;;;;5049118;28;20168;-63
2021/06/02 10:56:36;;;;;;;7.22;4.00;;;26.70;33.80;;;;;;5048772;28;20094;-63
2021/06/02 10:59:02;;;;;;;7.50;3.92;;;26.90;34.00;;;;;;5047463;28;21609;-63
2021/06/02 11:01:31;;;;;;;8.73;4.10;;;27.20;34.30;;;;;;5052742;28;20218;-63
2021/06/02 11:04:06;;;;;;;;;;;27.40;33.80;;;;;;5053255;28;20155;-63
2021/06/02 11:06:36;;;;;;;7.53;4.10;;;27.50;33.00;;;;;;5049618;28;19972;-62
2021/06/02 11:09:04;;;;;;;8.55;4.68;;;27.60;32.70;;;;;;5045775;28;20120;-62
2021/06/02 11:11:38;;;;;;;8.63;4.43;;;27.40;32.00;;;;;;5048657;28;20096;-61
2021/06/02 11:14:23;;;;;;;5.95;4.40;;;27.60;32.40;;;;;;5047133;28;20088;-62
2021/06/02 11:16:56;;;;;;;5.63;4.25;;;27.40;32.70;;;;;;5048553;28;20105;-61
2021/06/02 11:19:35;;;;;;;7.00;4.63;;;27.30;33.40;;;;;;5048641;28;20089;-62
2021/06/02 11:22:03;;;;;;;7.07;4.53;;;27.20;33.40;;;;;;5048309;28;20138;-62
2021/06/02 11:24:32;;;;;;;6.05;4.43;;;27.30;33.90;;;;;;5051585;28;20090;-62
2021/06/02 11:27:10;;;;;;;;;;;27.10;33.50;;;;;;5047865;28;20608;-62
2021/06/02 11:29:56;;;;;;;7.73;4.77;;;27.20;34.80;;;;;;5048322;28;20080;-63
2021/06/02 11:32:27;;;;;;;5.70;4.00;;;26.80;33.90;;;;;;5042247;28;20347;-62
2021/06/02 11:35:01;;;;;;;7.50;4.28;;;27.20;34.30;;;;;;5045837;28;20490;-62
2021/06/02 11:37:29;;;;;;;5.78;4.35;;;27.40;33.70;;;;;;5047497;28;20097;-62
2021/06/02 11:39:57;;;;;;;6.43;4.57;;;27.50;34.00;;;;;;5051541;28;20093;-63
2021/06/02 11:42:29;;;;;;;7.65;5.75;;;27.50;33.80;;;;;;5050114;28;20169;-63
2021/06/02 11:45:00;;;;;;;6.40;4.25;;;27.50;33.50;;;;;;5051740;28;20470;-61
2021/06/02 11:47:26;;;;;;;10.55;4.47;;;27.40;34.10;;;;;;5050559;28;20183;-62
2021/06/02 11:50:00;;;;;;;7.43;4.65;;;27.50;34.20;;;;;;5047291;28;20089;-62
2021/06/02 11:52:27;;;;;;;6.80;4.65;;;27.60;33.20;;;;;;5041372;28;20177;-62
2021/06/02 11:55:05;;;;;;;7.50;4.93;;;27.80;33.30;;;;;;5047659;28;20101;-62
2021/06/02 11:57:34;;;;;;;7.88;4.07;;;28.00;31.90;;;;;;5060798;28;20439;-62
2021/06/02 12:00:12;;;;;;;8.05;4.78;;;28.30;32.80;;;;;;5047160;28;20135;-62
2021/06/02 12:02:39;;;;;;;7.07;4.35;;;28.60;33.40;;;;;;5051770;28;20108;-62
2021/06/02 12:05:33;;;;;;;8.65;4.13;;;28.80;33.10;;;;;;5054022;28;20093;-62
2021/06/02 12:08:04;;;;;;;6.97;4.78;;;29.10;32.70;;;;;;5047499;28;20192;-63
2021/06/02 12:10:51;;;;;;;6.35;5.18;;;29.20;32.20;;;;;;5046286;28;20183;-63
2021/06/02 12:13:33;;;;;;;7.43;4.63;;;29.30;32.50;;;;;;5048107;28;20151;-61
2021/06/02 12:16:01;;;;;;;9.63;6.07;;;29.40;33.30;;;;;;5045323;28;20086;-63
2021/06/02 12:18:40;;;;;;;7.28;4.80;;;29.50;31.40;;;;;;5048617;28;20115;-62
2021/06/02 12:21:22;;;;;;;8.88;5.60;;;29.40;32.30;;;;;;5048359;28;20094;-62
2021/06/02 12:23:58;;;;;;;7.63;4.70;;;29.50;32.20;;;;;;5047300;28;20625;-63
2021/06/02 12:26:32;;;;;;;8.50;4.90;;;29.50;32.50;;;;;;5051245;28;20119;-62
2021/06/02 12:29:04;;;;;;;6.70;4.90;;;29.80;33.20;;;;;;5051576;28;20128;-62
2021/06/02 12:31:55;;;;;;;7.55;4.60;;;29.70;32.90;;;;;;5051920;28;20503;-62
2021/06/02 12:34:24;;;;;;;8.93;4.63;;;29.80;32.40;;;;;;5051768;28;20097;-62
2021/06/02 12:36:55;;;;;;;7.25;4.72;;;30.10;31.20;;;;;;5050879;28;20091;-62
2021/06/02 12:39:23;;;;;;;8.88;5.20;;;30.10;31.90;;;;;;5052768;28;20093;-62
2021/06/02 12:41:50;;;;;;;10.57;4.88;;;30.20;31.10;;;;;;5052788;28;20527;-63
2021/06/02 12:44:27;;;;;;;8.02;4.40;;;30.10;32.70;;;;;;5051798;28;20100;-62
2021/06/02 12:46:56;;;;;;;8.07;5.18;;;29.90;31.30;;;;;;5047939;28;20129;-62
2021/06/02 12:49:22;;;;;;;6.80;4.85;;;29.50;30.60;;;;;;5052156;28;20539;-61
2021/06/02 12:51:56;;;;;;;7.68;4.82;;;29.50;31.60;;;;;;5045653;28;20091;-61
2021/06/02 12:54:25;;;;;;;7.13;4.47;;;29.40;33.00;;;;;;5046163;28;20089;-63
2021/06/02 12:56:51;;;;;;;7.85;5.00;;;29.60;32.40;;;;;;5085825;28;20093;-62
2021/06/02 12:59:17;;;;;;;7.72;4.68;;;29.50;32.30;;;;;;5048163;28;20085;-62
2021/06/02 13:01:44;;;;;;;10.30;4.90;;;29.50;32.90;;;;;;5079210;28;20490;-62
2021/06/02 13:04:14;;;;;;;5.95;4.55;;;29.60;33.00;;;;;;5050118;28;20100;-63
2021/06/02 13:06:51;;;;;;;6.40;4.45;;;29.60;33.30;;;;;;5045188;28;20097;-63
2021/06/02 13:09:21;;;;;;;8.40;4.50;;;29.50;32.10;;;;;;5050657;28;20163;-64
2021/06/02 13:11:47;;;;;;;7.65;4.70;;;29.60;33.00;;;;;;5054950;28;20088;-63
2021/06/02 13:14:14;;;;;;;5.43;4.20;;;29.60;32.80;;;;;;5051773;28;20097;-62
2021/06/02 13:17:00;;;;;;;5.70;3.97;;;29.80;32.80;;;;;;5047850;28;20086;-62
2021/06/02 13:19:41;;;;;;;5.68;4.15;;;29.90;32.80;;;;;;5048224;28;20101;-62
2021/06/02 13:22:18;;;;;;;6.13;4.13;;;30.00;33.10;;;;;;5045740;28;20173;-62
2021/06/02 13:24:44;;;;;;;7.85;4.28;;;29.90;32.60;;;;;;5048955;28;20075;-62
2021/06/02 13:27:20;;;;;;;6.47;4.45;;;29.70;33.20;;;;;;5054259;28;20068;-62
2021/06/02 13:30:06;;;;;;;8.20;4.35;;;29.80;33.10;;;;;;5044725;28;20143;-62